createdAt,value
2023-03-12T00:01:36.151Z,6.45
2023-03-12T00:04:07.463Z,5.82
2023-03-12T00:06:38.982Z,8.32
2023-03-12T00:09:10.809Z,9.45
2023-03-12T00:11:41.186Z,5.30
2023-03-12T00:14:11.532Z,8.95
2023-03-12T00:16:41.959Z,5.82
2023-03-12T00:19:15.279Z,6.75
2023-03-12T00:21:45.472Z,7.57
2023-03-12T00:24:15.808Z,7.93
2023-03-12T00:26:46.465Z,5.80
2023-03-12T00:29:16.800Z,5.70
2023-03-12T00:31:47.028Z,5.90
2023-03-12T00:34:17.248Z,6.15
2023-03-12T00:36:47.495Z,11.43
2023-03-12T00:39:17.669Z,5.15
2023-03-12T00:41:47.962Z,5.30
2023-03-12T00:44:18.305Z,7.35
2023-03-12T00:46:48.640Z,8.18
2023-03-12T00:49:19.090Z,7.82
2023-03-12T00:51:49.319Z,6.38
2023-03-12T00:54:19.552Z,6.85
2023-03-12T00:56:49.918Z,4.60
2023-03-12T00:59:20.152Z,6.70
2023-03-12T01:01:51.452Z,4.80
2023-03-12T01:04:21.707Z,6.70
2023-03-12T01:06:52.022Z,5.20
2023-03-12T01:09:22.393Z,5.85
2023-03-12T01:11:52.554Z,5.97
2023-03-12T01:14:22.836Z,6.80
2023-03-12T01:16:53.720Z,7.60
2023-03-12T01:19:24.031Z,4.90
2023-03-12T01:21:54.252Z,7.28
2023-03-12T01:24:24.475Z,6.60
2023-03-12T01:26:54.652Z,7.95
2023-03-12T01:29:24.972Z,7.65
2023-03-12T01:31:55.509Z,7.20
2023-03-12T01:34:25.911Z,6.40
2023-03-12T01:36:57.048Z,5.55
2023-03-12T01:39:27.748Z,9.48
2023-03-12T01:41:57.970Z,8.95
2023-03-12T01:44:28.218Z,7.63
2023-03-12T01:46:58.462Z,10.73
2023-03-12T01:49:35.276Z,10.65
2023-03-12T01:52:13.068Z,9.98
2023-03-12T01:55:06.184Z,7.80
2023-03-12T01:57:54.376Z,11.90
2023-03-12T02:00:27.668Z,11.43
2023-03-12T02:03:04.598Z,11.05
2023-03-12T02:05:56.437Z,7.63
2023-03-12T02:08:30.448Z,8.82
2023-03-12T02:11:00.671Z,7.18
2023-03-12T02:13:30.988Z,6.93
2023-03-12T02:16:02.425Z,10.88
2023-03-12T02:18:32.909Z,7.78
2023-03-12T02:21:05.849Z,8.68
2023-03-12T02:23:44.981Z,4.78
2023-03-12T02:26:17.280Z,11.18
2023-03-12T02:28:48.269Z,9.63
2023-03-12T02:31:24.063Z,6.07
2023-03-12T02:33:55.091Z,6.55
2023-03-12T02:36:25.748Z,5.38
2023-03-12T02:38:57.751Z,9.45
2023-03-12T02:41:45.150Z,6.22
2023-03-12T02:44:18.698Z,6.68
2023-03-12T02:46:52.613Z,8.07
2023-03-12T02:49:25.562Z,6.28
2023-03-12T02:51:56.376Z,8.23
2023-03-12T02:54:27.536Z,4.35
2023-03-12T02:56:58.244Z,6.28
2023-03-12T02:59:28.902Z,5.47
2023-03-12T03:02:02.809Z,4.45
2023-03-12T03:04:35.653Z,3.53
2023-03-12T03:07:06.953Z,4.90
2023-03-12T03:09:37.175Z,9.88
2023-03-12T03:12:07.893Z,6.68
2023-03-12T03:14:38.109Z,4.13
2023-03-12T03:17:08.687Z,7.07
2023-03-12T03:19:38.842Z,5.28
2023-03-12T03:22:09.421Z,4.95
2023-03-12T03:24:39.635Z,6.97
2023-03-12T03:27:09.898Z,5.05
2023-03-12T03:29:40.277Z,7.22
2023-03-12T03:32:10.661Z,6.07
2023-03-12T03:34:41.119Z,7.10
2023-03-12T03:37:11.914Z,6.60
2023-03-12T03:39:42.239Z,6.65
2023-03-12T03:42:12.500Z,3.28
2023-03-12T03:44:42.763Z,4.05
2023-03-12T03:47:13.170Z,5.30
2023-03-12T03:49:43.694Z,7.05
2023-03-12T03:52:13.929Z,5.85
2023-03-12T03:54:44.264Z,2.97
2023-03-12T03:57:14.616Z,3.63
2023-03-12T03:59:44.955Z,5.65
2023-03-12T04:02:15.358Z,4.38
2023-03-12T04:04:45.733Z,2.97
2023-03-12T04:07:16.199Z,3.83
2023-03-12T04:09:46.657Z,5.82
2023-03-12T04:12:16.970Z,3.00
2023-03-12T04:14:47.208Z,3.78
2023-03-12T04:17:17.413Z,4.88
2023-03-12T04:19:47.644Z,4.93
2023-03-12T04:22:17.853Z,5.00
2023-03-12T04:24:48.111Z,4.32
2023-03-12T04:27:18.275Z,5.28
2023-03-12T04:29:48.585Z,4.82
2023-03-12T04:32:18.933Z,4.85
2023-03-12T04:34:49.382Z,5.93
2023-03-12T04:37:19.592Z,6.03
2023-03-12T04:39:49.823Z,3.70
2023-03-12T04:42:19.974Z,7.45
2023-03-12T04:44:54.107Z,5.00
2023-03-12T04:47:24.290Z,5.60
2023-03-12T04:49:54.599Z,5.43
2023-03-12T04:52:25.055Z,5.53
2023-03-12T04:54:56.180Z,3.55
2023-03-12T04:57:26.430Z,2.60
2023-03-12T04:59:56.720Z,2.75
2023-03-12T05:02:28.678Z,3.28
2023-03-12T05:04:59.799Z,4.82
2023-03-12T05:07:29.964Z,2.60
2023-03-12T05:10:00.209Z,8.52
2023-03-12T05:12:30.404Z,2.75
2023-03-12T05:15:00.728Z,4.97
2023-03-12T05:17:31.055Z,3.28
2023-03-12T05:20:01.347Z,6.68
2023-03-12T05:22:31.618Z,7.28
2023-03-12T05:25:01.906Z,5.70
2023-03-12T05:27:32.308Z,3.85
2023-03-12T05:30:02.505Z,3.58
2023-03-12T05:32:32.777Z,3.60
2023-03-12T05:35:03.090Z,3.15
2023-03-12T05:37:33.302Z,4.75
2023-03-12T05:40:03.528Z,3.35
2023-03-12T05:42:33.781Z,2.60
2023-03-12T05:45:04.220Z,4.70
2023-03-12T05:47:34.510Z,3.25
2023-03-12T05:50:04.868Z,5.28
2023-03-12T05:52:35.319Z,4.90
2023-03-12T05:55:05.900Z,5.78
2023-03-12T05:57:36.118Z,3.08
2023-03-12T06:00:07.524Z,4.45
2023-03-12T06:02:37.896Z,2.80
2023-03-12T06:05:08.873Z,3.53
2023-03-12T06:07:39.410Z,5.18
2023-03-12T06:10:10.215Z,4.25
2023-03-12T06:12:40.500Z,4.05
2023-03-12T06:15:11.268Z,3.40
2023-03-12T06:17:41.554Z,3.83
2023-03-12T06:20:12.589Z,3.67
2023-03-12T06:22:42.970Z,4.57
2023-03-12T06:25:13.595Z,5.55
2023-03-12T06:27:44.470Z,3.10
2023-03-12T06:30:15.306Z,3.30
2023-03-12T06:32:45.650Z,4.70
2023-03-12T06:35:16.012Z,2.90
2023-03-12T06:37:46.224Z,3.28
2023-03-12T06:40:16.583Z,3.25
2023-03-12T06:42:46.818Z,4.28
2023-03-12T06:45:17.144Z,3.67
2023-03-12T06:47:47.606Z,4.00
2023-03-12T06:50:18.053Z,4.28
2023-03-12T06:52:48.323Z,4.60
2023-03-12T06:55:18.868Z,4.32
2023-03-12T06:57:49.545Z,6.35
2023-03-12T07:00:20.401Z,3.30
2023-03-12T07:02:50.651Z,4.18
2023-03-12T07:05:20.972Z,3.92
2023-03-12T07:07:52.500Z,2.92
2023-03-12T07:10:23.092Z,3.53
2023-03-12T07:12:53.749Z,4.53
2023-03-12T07:15:24.214Z,2.90
2023-03-12T07:17:54.722Z,3.47
2023-03-12T07:20:25.079Z,4.20
2023-03-12T07:22:55.290Z,5.00
2023-03-12T07:25:25.635Z,3.63
2023-03-12T07:27:55.872Z,5.57
2023-03-12T07:30:26.362Z,3.83
2023-03-12T07:32:56.656Z,4.53
2023-03-12T07:35:27.061Z,4.95
2023-03-12T07:37:57.487Z,5.53
2023-03-12T07:40:28.141Z,5.20
2023-03-12T07:42:58.804Z,5.05
2023-03-12T07:45:29.266Z,4.25
2023-03-12T07:47:59.580Z,6.45
2023-03-12T07:50:29.988Z,4.80
2023-03-12T07:53:00.327Z,4.53
2023-03-12T07:55:30.865Z,7.65
2023-03-12T07:58:01.211Z,6.45
2023-03-12T08:00:32.890Z,6.15
2023-03-12T08:03:03.359Z,4.20
2023-03-12T08:05:33.907Z,5.70
2023-03-12T08:08:04.187Z,3.75
2023-03-12T08:10:34.377Z,4.00
2023-03-12T08:13:04.716Z,3.88
2023-03-12T08:15:35.255Z,6.30
2023-03-12T08:18:05.569Z,6.68
2023-03-12T08:20:35.754Z,4.30
2023-03-12T08:23:05.992Z,3.88
2023-03-12T08:25:38.357Z,3.30
2023-03-12T08:28:08.699Z,4.97
2023-03-12T08:30:38.940Z,4.45
2023-03-12T08:33:09.348Z,5.70
2023-03-12T08:35:39.669Z,3.97
2023-03-12T08:38:15.453Z,4.60
2023-03-12T08:40:46.360Z,5.65
2023-03-12T08:43:16.609Z,3.95
2023-03-12T08:45:46.830Z,3.92
2023-03-12T08:48:17.189Z,4.68
2023-03-12T08:50:47.535Z,5.65
2023-03-12T08:53:17.842Z,6.13
2023-03-12T08:55:48.123Z,5.85
2023-03-12T08:58:18.386Z,8.05
2023-03-12T09:00:48.648Z,13.20
2023-03-12T09:03:18.922Z,5.28
2023-03-12T09:05:49.750Z,4.10
2023-03-12T09:08:31.995Z,4.22
2023-03-12T09:11:03.929Z,4.10
2023-03-12T09:13:54.975Z,7.80
2023-03-12T09:16:25.274Z,4.00
2023-03-12T09:18:55.970Z,3.67
2023-03-12T09:21:26.351Z,3.85
2023-03-12T09:23:56.903Z,3.55
2023-03-12T09:26:27.716Z,3.58
2023-03-12T09:28:59.543Z,3.38
2023-03-12T09:31:29.835Z,4.45
2023-03-12T09:34:00.126Z,3.35
2023-03-12T09:36:30.409Z,4.88
2023-03-12T09:39:00.651Z,3.03
2023-03-12T09:41:36.038Z,2.95
2023-03-12T09:44:34.365Z,2.60
2023-03-12T09:47:26.871Z,2.83
2023-03-12T09:50:19.716Z,2.65
2023-03-12T09:53:04.097Z,2.80
2023-03-12T09:55:41.756Z,2.63
2023-03-12T09:58:34.499Z,3.17
2023-03-12T10:01:24.620Z,3.88
2023-03-12T10:04:52.306Z,2.75
2023-03-12T10:07:32.736Z,2.50
2023-03-12T10:10:09.309Z,2.20
2023-03-12T10:13:03.751Z,2.35
2023-03-12T10:15:48.735Z,2.85
2023-03-12T10:18:19.118Z,2.17
2023-03-12T10:21:22.956Z,2.85
2023-03-12T10:24:13.399Z,3.17
2023-03-12T10:26:47.884Z,7.30
2023-03-12T10:29:26.125Z,3.35
2023-03-12T10:32:07.609Z,2.00
2023-03-12T10:34:52.502Z,3.92
2023-03-12T10:37:38.939Z,2.38
2023-03-12T10:40:10.557Z,2.85
2023-03-12T10:42:42.434Z,4.47
2023-03-12T10:45:12.565Z,3.65
2023-03-12T10:47:59.255Z,3.60
2023-03-12T10:50:32.291Z,2.42
2023-03-12T10:53:36.353Z,4.00
2023-03-12T10:56:18.265Z,3.53
2023-03-12T10:58:51.262Z,2.65
2023-03-12T11:01:27.604Z,3.95
2023-03-12T11:04:19.319Z,2.35
2023-03-12T11:07:13.777Z,2.47
2023-03-12T11:09:44.452Z,2.83
2023-03-12T11:12:36.337Z,2.88
2023-03-12T11:15:22.340Z,2.58
2023-03-12T11:17:52.703Z,3.17
2023-03-12T11:20:30.639Z,3.83
2023-03-12T11:23:15.244Z,3.13
2023-03-12T11:25:45.811Z,4.68
2023-03-12T11:28:23.383Z,2.30
2023-03-12T11:30:55.918Z,3.03
2023-03-12T11:33:26.628Z,2.63
2023-03-12T11:36:25.799Z,3.45
2023-03-12T11:39:08.450Z,2.38
2023-03-12T11:41:41.748Z,2.63
2023-03-12T11:44:50.123Z,2.50
2023-03-12T11:47:42.839Z,2.72
2023-03-12T11:50:39.116Z,2.78
2023-03-12T11:53:18.859Z,2.88
2023-03-12T11:55:56.557Z,4.65
2023-03-12T11:59:25.171Z,5.07
2023-03-12T12:02:25.739Z,5.13
2023-03-12T12:05:04.139Z,2.53
2023-03-12T12:07:56.900Z,3.03
2023-03-12T12:10:45.143Z,2.20
2023-03-12T12:13:40.772Z,3.35
2023-03-12T12:16:30.663Z,3.17
2023-03-12T12:19:16.748Z,3.95
2023-03-12T12:21:58.577Z,3.15
2023-03-12T12:24:59.278Z,3.22
2023-03-12T12:27:39.554Z,3.50
2023-03-12T12:30:21.481Z,2.83
2023-03-12T12:33:10.273Z,3.33
2023-03-12T12:35:43.031Z,3.00
2023-03-12T12:38:39.437Z,3.50
2023-03-12T12:41:16.278Z,3.72
2023-03-12T12:43:53.724Z,2.75
2023-03-12T12:46:30.483Z,2.97
2023-03-12T12:49:16.056Z,2.88
2023-03-12T12:51:59.925Z,3.30
2023-03-12T12:55:03.479Z,2.88
2023-03-12T12:57:59.036Z,3.30
2023-03-12T13:00:38.793Z,3.63
2023-03-12T13:03:13.706Z,3.17
2023-03-12T13:05:52.278Z,2.70
2023-03-12T13:08:46.020Z,3.10
2023-03-12T13:11:20.804Z,4.45
2023-03-12T13:14:06.403Z,3.40
2023-03-12T13:16:41.257Z,3.13
2023-03-12T13:19:31.427Z,3.20
2023-03-12T13:22:14.020Z,4.15
2023-03-12T13:25:04.346Z,3.38
2023-03-12T13:27:41.446Z,3.20
2023-03-12T13:30:35.932Z,3.50
2023-03-12T13:33:16.565Z,3.72
2023-03-12T13:36:11.128Z,3.22
2023-03-12T13:39:03.209Z,2.92
2023-03-12T13:41:41.257Z,3.20
2023-03-12T13:44:30.605Z,4.05
2023-03-12T13:47:14.418Z,3.80
2023-03-12T13:49:48.305Z,3.17
2023-03-12T13:52:53.842Z,3.13
2023-03-12T13:55:29.791Z,3.03
2023-03-12T13:58:09.199Z,3.97
2023-03-12T14:00:57.085Z,2.95
2023-03-12T14:03:55.766Z,3.22
2023-03-12T14:06:30.436Z,3.38
2023-03-12T14:09:26.878Z,4.72
2023-03-12T14:12:03.196Z,4.00
2023-03-12T14:14:43.163Z,3.88
2023-03-12T14:17:27.188Z,3.40
2023-03-12T14:20:04.478Z,3.53
2023-03-12T14:22:40.932Z,3.30
2023-03-12T14:25:20.033Z,6.55
2023-03-12T14:27:50.960Z,3.63
2023-03-12T14:30:48.794Z,3.92
2023-03-12T14:33:20.389Z,3.58
2023-03-12T14:36:03.958Z,3.53
2023-03-12T14:38:43.968Z,4.30
2023-03-12T14:41:46.951Z,2.95
2023-03-12T14:44:29.193Z,3.40
2023-03-12T14:47:01.592Z,3.67
2023-03-12T14:49:34.088Z,3.38
2023-03-12T14:52:04.521Z,3.15
2023-03-12T14:54:34.819Z,3.47
2023-03-12T14:57:05.042Z,3.30
2023-03-12T14:59:41.567Z,3.40
2023-03-12T15:02:18.803Z,2.58
2023-03-12T15:04:54.536Z,3.40
2023-03-12T15:07:41.210Z,3.60
2023-03-12T15:10:26.539Z,3.22
2023-03-12T15:12:59.782Z,3.38
2023-03-12T15:15:46.637Z,3.40
2023-03-12T15:18:20.572Z,3.40
2023-03-12T15:20:52.254Z,3.17
2023-03-12T15:23:23.370Z,3.13
2023-03-12T15:26:16.773Z,3.50
2023-03-12T15:28:57.032Z,3.10
2023-03-12T15:31:27.656Z,3.50
2023-03-12T15:34:07.198Z,3.45
2023-03-12T15:36:38.979Z,3.20
2023-03-12T15:39:28.296Z,3.50
2023-03-12T15:42:03.194Z,3.20
2023-03-12T15:44:51.339Z,3.22
2023-03-12T15:47:25.203Z,3.47
2023-03-12T15:49:57.989Z,3.63
2023-03-12T15:52:34.517Z,3.30
2023-03-12T15:55:15.207Z,3.80
2023-03-12T15:57:56.858Z,3.72
2023-03-12T16:00:28.699Z,3.17
2023-03-12T16:03:01.771Z,3.50
2023-03-12T16:05:42.359Z,3.53
2023-03-12T16:08:49.944Z,3.30
2023-03-12T16:11:26.487Z,3.20
2023-03-12T16:14:30.903Z,3.58
2023-03-12T16:17:01.119Z,3.53
2023-03-12T16:19:35.849Z,3.42
2023-03-12T16:22:06.223Z,3.30
2023-03-12T16:24:36.453Z,3.70
2023-03-12T16:27:08.726Z,3.33
2023-03-12T16:29:40.871Z,3.45
2023-03-12T16:32:29.222Z,3.38
2023-03-12T16:34:59.474Z,4.50
2023-03-12T16:37:30.545Z,3.38
2023-03-12T16:40:00.731Z,3.40
2023-03-12T16:42:30.978Z,3.00
2023-03-12T16:45:01.265Z,2.92
2023-03-12T16:47:32.581Z,3.40
2023-03-12T16:50:02.853Z,3.45
2023-03-12T16:52:33.126Z,3.88
2023-03-12T16:55:03.555Z,3.42
2023-03-12T16:57:39.953Z,3.40
2023-03-12T17:00:14.838Z,3.13
2023-03-12T17:02:45.151Z,3.25
2023-03-12T17:05:16.195Z,3.50
2023-03-12T17:07:46.397Z,3.38
2023-03-12T17:10:18.924Z,3.63
2023-03-12T17:12:49.517Z,3.70
2023-03-12T17:15:32.141Z,3.63
2023-03-12T17:18:05.152Z,3.40
2023-03-12T17:20:37.837Z,3.28
2023-03-12T17:23:08.813Z,3.00
2023-03-12T17:25:42.429Z,3.65
2023-03-12T17:28:13.432Z,3.25
2023-03-12T17:30:43.826Z,3.05
2023-03-12T17:33:19.942Z,3.15
2023-03-12T17:36:00.850Z,2.95
2023-03-12T17:38:32.286Z,3.58
2023-03-12T17:41:04.760Z,3.08
2023-03-12T17:43:37.158Z,3.42
2023-03-12T17:46:12.005Z,3.05
2023-03-12T17:48:42.215Z,3.17
2023-03-12T17:51:13.760Z,3.47
2023-03-12T17:53:44.375Z,3.53
2023-03-12T17:56:19.670Z,3.33
2023-03-12T17:58:50.266Z,3.30
2023-03-12T18:01:21.528Z,3.17
2023-03-12T18:03:52.860Z,3.20
2023-03-12T18:06:23.507Z,3.10
2023-03-12T18:08:53.951Z,3.30
2023-03-12T18:11:24.458Z,3.60
2023-03-12T18:13:54.769Z,3.65
2023-03-12T18:16:25.190Z,3.03
2023-03-12T18:18:55.439Z,2.83
2023-03-12T18:21:27.545Z,2.90
2023-03-12T18:24:02.001Z,3.58
2023-03-12T18:26:38.682Z,3.47
2023-03-12T18:29:08.937Z,3.33
2023-03-12T18:31:39.278Z,3.78
2023-03-12T18:34:09.611Z,3.03
2023-03-12T18:36:39.889Z,3.53
2023-03-12T18:39:11.416Z,3.35
2023-03-12T18:41:42.124Z,4.20
2023-03-12T18:44:12.486Z,3.20
2023-03-12T18:46:42.821Z,3.85
2023-03-12T18:49:14.083Z,3.17
2023-03-12T18:51:44.387Z,3.30
2023-03-12T18:54:14.992Z,3.40
2023-03-12T18:56:45.186Z,2.83
2023-03-12T18:59:16.573Z,2.88
2023-03-12T19:01:47.191Z,3.40
2023-03-12T19:04:21.450Z,7.65
2023-03-12T19:06:52.431Z,6.70
2023-03-12T19:09:22.786Z,12.23
2023-03-12T19:11:53.588Z,4.65
2023-03-12T19:14:23.860Z,10.07
2023-03-12T19:16:54.448Z,2.75
2023-03-12T19:19:24.716Z,7.47
2023-03-12T19:21:55.164Z,3.75
2023-03-12T19:24:25.973Z,2.67
2023-03-12T19:26:56.517Z,3.05
2023-03-12T19:29:26.736Z,5.20
2023-03-12T19:31:56.965Z,2.60
2023-03-12T19:34:27.274Z,2.53
2023-03-12T19:36:57.505Z,2.80
2023-03-12T19:39:27.945Z,2.50
2023-03-12T19:42:01.206Z,2.45
2023-03-12T19:44:31.634Z,2.60
2023-03-12T19:47:03.899Z,3.00
2023-03-12T19:49:34.194Z,3.33
2023-03-12T19:52:05.679Z,2.38
2023-03-12T19:54:36.000Z,2.28
2023-03-12T19:57:06.324Z,2.25
2023-03-12T19:59:36.580Z,2.58
2023-03-12T20:02:06.894Z,2.75
2023-03-12T20:04:37.134Z,2.35
2023-03-12T20:07:07.364Z,2.20
2023-03-12T20:09:37.642Z,3.20
2023-03-12T20:12:08.149Z,2.42
2023-03-12T20:14:39.074Z,2.53
2023-03-12T20:17:10.046Z,2.53
2023-03-12T20:19:40.702Z,3.05
2023-03-12T20:22:11.439Z,5.03
2023-03-12T20:24:41.667Z,3.55
2023-03-12T20:27:11.892Z,5.45
2023-03-12T20:29:42.166Z,6.47
2023-03-12T20:32:12.459Z,2.80
2023-03-12T20:34:42.773Z,5.72
2023-03-12T20:37:14.352Z,2.25
2023-03-12T20:39:44.687Z,5.18
2023-03-12T20:42:14.884Z,2.55
2023-03-12T20:44:45.067Z,3.85
2023-03-12T20:47:15.246Z,4.40
2023-03-12T20:49:45.473Z,2.92
2023-03-12T20:52:15.679Z,3.03
2023-03-12T20:54:45.922Z,5.95
2023-03-12T20:57:16.241Z,4.68
2023-03-12T20:59:46.464Z,2.45
2023-03-12T21:02:17.338Z,6.13
2023-03-12T21:04:47.699Z,2.85
2023-03-12T21:07:18.163Z,3.03
2023-03-12T21:09:48.579Z,4.63
2023-03-12T21:12:18.867Z,2.88
2023-03-12T21:14:49.157Z,4.10
2023-03-12T21:17:19.362Z,2.40
2023-03-12T21:19:50.107Z,2.60
2023-03-12T21:22:20.421Z,3.58
2023-03-12T21:24:51.254Z,2.90
2023-03-12T21:27:21.452Z,5.57
2023-03-12T21:29:51.660Z,3.63
2023-03-12T21:32:22.952Z,5.22
2023-03-12T21:34:53.552Z,3.97
2023-03-12T21:37:23.845Z,3.88
2023-03-12T21:39:54.137Z,5.40
2023-03-12T21:42:24.349Z,4.93
2023-03-12T21:44:54.699Z,5.65
2023-03-12T21:47:25.207Z,2.70
2023-03-12T21:49:55.507Z,2.88
2023-03-12T21:52:25.728Z,2.78
2023-03-12T21:54:56.161Z,2.50
2023-03-12T21:57:26.487Z,2.97
2023-03-12T21:59:56.744Z,3.22
2023-03-12T22:02:28.040Z,3.50
2023-03-12T22:05:00.495Z,3.85
2023-03-12T22:07:32.551Z,4.63
2023-03-12T22:10:02.730Z,7.68
2023-03-12T22:12:33.051Z,5.50
2023-03-12T22:15:03.297Z,5.43
2023-03-12T22:17:34.285Z,5.18
2023-03-12T22:20:04.778Z,4.68
2023-03-12T22:22:35.302Z,3.08
2023-03-12T22:25:05.964Z,5.78
2023-03-12T22:27:36.222Z,4.70
2023-03-12T22:30:06.785Z,5.22
2023-03-12T22:32:37.094Z,3.25
2023-03-12T22:35:07.758Z,5.10
2023-03-12T22:37:38.004Z,4.15
2023-03-12T22:40:08.882Z,3.78
2023-03-12T22:42:43.081Z,5.40
2023-03-12T22:45:13.676Z,3.25
2023-03-12T22:47:44.024Z,6.40
2023-03-12T22:50:14.994Z,5.05
2023-03-12T22:52:45.174Z,3.63
2023-03-12T22:55:15.380Z,3.92
2023-03-12T22:57:45.763Z,3.92
2023-03-12T23:00:19.253Z,4.57
2023-03-12T23:02:49.428Z,3.67
2023-03-12T23:05:20.055Z,4.90
2023-03-12T23:07:51.454Z,5.22
2023-03-12T23:10:21.831Z,3.45
2023-03-12T23:12:52.064Z,4.97
2023-03-12T23:15:24.528Z,4.22
2023-03-12T23:17:59.280Z,3.83
2023-03-12T23:20:29.463Z,10.18
2023-03-12T23:22:59.724Z,12.70
2023-03-12T23:25:30.071Z,10.52
2023-03-12T23:28:00.456Z,7.32
2023-03-12T23:30:31.170Z,8.30
2023-03-12T23:33:01.381Z,5.97
2023-03-12T23:35:32.681Z,5.30
2023-03-12T23:38:03.146Z,5.60
2023-03-12T23:40:33.382Z,7.47
2023-03-12T23:43:03.553Z,6.20
2023-03-12T23:45:33.847Z,7.18
2023-03-12T23:48:04.135Z,4.97
2023-03-12T23:50:39.620Z,4.03
2023-03-12T23:53:09.818Z,5.60
2023-03-12T23:55:40.012Z,5.50
2023-03-12T23:58:11.158Z,3.78
